createdAt,value
2022-10-19T00:00:17.571Z,9.95
2022-10-19T00:03:24.952Z,9.88
2022-10-19T00:06:36.270Z,9.86
2022-10-19T00:09:46.353Z,9.81
2022-10-19T00:12:53.203Z,9.75
2022-10-19T00:16:05.773Z,9.69
2022-10-19T00:19:15.792Z,9.64
2022-10-19T00:22:22.895Z,9.58
2022-10-19T00:25:32.077Z,9.51
2022-10-19T00:28:39.920Z,9.46
2022-10-19T00:31:48.197Z,9.40
2022-10-19T00:34:55.068Z,9.34
2022-10-19T00:38:01.671Z,9.36
2022-10-19T00:41:10.061Z,9.36
2022-10-19T00:44:20.058Z,9.35
2022-10-19T00:47:27.026Z,9.33
2022-10-19T00:50:36.020Z,9.34
2022-10-19T00:53:45.782Z,9.41
2022-10-19T00:56:55.789Z,9.44
2022-10-19T01:00:04.381Z,9.53
2022-10-19T01:03:12.751Z,9.54
2022-10-19T01:06:21.971Z,9.58
2022-10-19T01:09:28.795Z,9.71
2022-10-19T01:12:38.311Z,9.80
2022-10-19T01:15:44.865Z,9.87
2022-10-19T01:19:00.793Z,9.95
2022-10-19T01:22:13.511Z,10.02
2022-10-19T01:25:40.278Z,10.10
2022-10-19T01:29:03.819Z,10.14
2022-10-19T01:32:13.245Z,10.17
2022-10-19T01:35:30.551Z,10.20
2022-10-19T01:38:40.651Z,10.20
2022-10-19T01:41:45.595Z,10.15
2022-10-19T01:44:58.895Z,10.07
2022-10-19T01:48:09.071Z,10.03
2022-10-19T01:51:20.791Z,10.12
2022-10-19T01:54:28.548Z,10.17
2022-10-19T01:57:35.826Z,10.19
2022-10-19T02:00:45.530Z,10.15
2022-10-19T02:03:53.078Z,10.18
2022-10-19T02:07:00.975Z,10.12
2022-10-19T02:10:09.762Z,10.06
2022-10-19T02:13:18.769Z,10.06
2022-10-19T02:16:27.896Z,10.10
2022-10-19T02:19:34.223Z,10.19
2022-10-19T02:22:40.317Z,10.20
2022-10-19T02:25:47.921Z,10.22
2022-10-19T02:28:58.317Z,10.32
2022-10-19T02:32:06.284Z,10.45
2022-10-19T02:35:12.311Z,10.54
2022-10-19T02:38:22.603Z,10.70
2022-10-19T02:41:36.955Z,10.89
2022-10-19T02:44:50.411Z,11.11
2022-10-19T02:47:59.725Z,11.41
2022-10-19T02:51:07.318Z,11.46
2022-10-19T02:54:13.919Z,11.50
2022-10-19T02:57:22.448Z,11.49
2022-10-19T03:00:28.363Z,11.48
2022-10-19T03:03:33.822Z,11.49
2022-10-19T03:06:39.208Z,11.50
2022-10-19T03:09:47.501Z,11.67
2022-10-19T03:12:54.955Z,12.13
2022-10-19T03:16:14.213Z,12.47
2022-10-19T03:19:21.392Z,12.66
2022-10-19T03:22:26.570Z,12.87
2022-10-19T03:25:32.617Z,12.89
2022-10-19T03:28:40.894Z,12.95
2022-10-19T03:31:46.624Z,12.94
2022-10-19T03:34:52.771Z,12.97
2022-10-19T03:38:01.140Z,12.91
2022-10-19T03:41:08.386Z,12.85
2022-10-19T03:44:14.672Z,12.80
2022-10-19T03:47:20.812Z,12.74
2022-10-19T03:50:30.036Z,12.79
2022-10-19T03:53:34.920Z,12.79
2022-10-19T03:56:41.563Z,12.83
2022-10-19T03:59:52.040Z,12.77
2022-10-19T04:02:58.829Z,12.74
2022-10-19T04:06:06.823Z,12.69
2022-10-19T04:09:15.296Z,12.50
2022-10-19T04:12:19.879Z,12.35
2022-10-19T04:15:25.847Z,12.22
2022-10-19T04:18:30.334Z,12.15
2022-10-19T04:21:36.436Z,12.09
2022-10-19T04:24:42.273Z,11.99
2022-10-19T04:27:47.499Z,12.18
2022-10-19T04:30:53.966Z,12.15
2022-10-19T04:34:00.728Z,12.09
2022-10-19T04:37:05.035Z,12.04
2022-10-19T04:40:14.881Z,12.05
2022-10-19T04:43:20.818Z,12.04
2022-10-19T04:46:26.144Z,11.96
2022-10-19T04:49:30.863Z,11.89
2022-10-19T04:52:36.520Z,11.96
2022-10-19T04:55:43.543Z,11.94
2022-10-19T04:58:49.380Z,11.86
2022-10-19T05:01:57.284Z,11.91
2022-10-19T05:05:01.488Z,11.77
2022-10-19T05:08:06.359Z,11.70
2022-10-19T05:11:15.417Z,11.58
2022-10-19T05:14:21.468Z,11.56
2022-10-19T05:17:25.712Z,11.55
2022-10-19T05:20:30.152Z,11.35
2022-10-19T05:23:33.713Z,11.36
2022-10-19T05:26:38.020Z,11.32
2022-10-19T05:29:40.505Z,11.20
2022-10-19T05:32:44.773Z,11.22
2022-10-19T05:35:48.654Z,11.17
2022-10-19T05:38:52.867Z,11.15
2022-10-19T05:41:56.161Z,11.19
2022-10-19T05:44:59.801Z,11.23
2022-10-19T05:48:02.823Z,11.26
2022-10-19T05:51:08.565Z,11.33
2022-10-19T05:54:12.964Z,11.38
2022-10-19T05:57:17.355Z,11.36
2022-10-19T06:00:27.306Z,11.36
2022-10-19T06:03:31.260Z,11.47
2022-10-19T06:06:34.843Z,11.43
2022-10-19T06:09:38.220Z,11.41
2022-10-19T06:12:42.011Z,11.38
2022-10-19T06:15:45.963Z,11.37
2022-10-19T06:18:49.527Z,11.46
2022-10-19T06:21:53.005Z,11.79
2022-10-19T06:24:56.952Z,11.82
2022-10-19T06:28:00.779Z,11.77
2022-10-19T06:31:08.434Z,11.81
2022-10-19T06:34:13.737Z,11.89
2022-10-19T06:37:17.295Z,11.94
2022-10-19T06:40:21.406Z,12.04
2022-10-19T06:43:25.132Z,12.09
2022-10-19T06:46:28.679Z,12.14
2022-10-19T06:49:31.508Z,12.21
2022-10-19T06:52:35.789Z,12.32
2022-10-19T06:55:39.302Z,12.42
2022-10-19T06:58:43.382Z,12.44
2022-10-19T07:01:46.184Z,12.51
2022-10-19T07:04:49.220Z,12.63
2022-10-19T07:07:52.334Z,12.67
2022-10-19T07:11:00.396Z,12.76
2022-10-19T07:14:04.197Z,12.89
2022-10-19T07:17:08.602Z,13.02
2022-10-19T07:20:12.117Z,13.08
2022-10-19T07:23:15.350Z,13.14
2022-10-19T07:26:22.112Z,13.23
2022-10-19T07:29:25.993Z,13.32
2022-10-19T07:32:29.160Z,13.32
2022-10-19T07:35:32.737Z,13.55
2022-10-19T07:38:36.931Z,13.99
2022-10-19T07:41:42.180Z,15.09
2022-10-19T07:44:45.807Z,15.50
2022-10-19T07:47:50.135Z,17.05
2022-10-19T07:50:52.947Z,17.92
2022-10-19T07:53:58.153Z,19.37
2022-10-19T07:57:01.779Z,19.62
2022-10-19T08:00:05.392Z,20.86
2022-10-19T08:06:39.115Z,23.03
2022-10-19T08:09:58.289Z,22.09
2022-10-19T08:13:03.642Z,23.40
2022-10-19T08:16:21.078Z,23.26
2022-10-19T08:19:26.834Z,25.45
2022-10-19T08:22:29.776Z,22.93
2022-10-19T08:25:33.326Z,20.45
2022-10-19T08:28:38.124Z,18.67
2022-10-19T08:31:43.073Z,17.43
2022-10-19T08:34:46.465Z,17.20
2022-10-19T08:37:51.430Z,16.77
2022-10-19T08:41:04.748Z,16.32
2022-10-19T08:44:28.472Z,15.92
2022-10-19T08:47:47.321Z,15.98
2022-10-19T08:50:54.005Z,15.83
2022-10-19T08:54:00.467Z,15.82
2022-10-19T08:57:04.687Z,15.94
2022-10-19T09:00:09.885Z,15.82
2022-10-19T09:03:37.526Z,15.78
2022-10-19T09:06:49.312Z,15.88
2022-10-19T09:10:04.559Z,16.05
2022-10-19T09:13:29.234Z,16.16
2022-10-19T09:16:40.081Z,16.34
2022-10-19T09:19:43.020Z,16.22
2022-10-19T09:22:46.845Z,16.23
2022-10-19T09:25:51.225Z,16.33
2022-10-19T09:28:58.495Z,16.32
2022-10-19T09:32:04.681Z,16.48
2022-10-19T09:35:23.723Z,16.60
2022-10-19T09:38:28.943Z,16.77
2022-10-19T09:41:33.077Z,16.78
2022-10-19T09:44:37.561Z,17.17
2022-10-19T09:47:43.983Z,17.39
2022-10-19T09:50:51.936Z,17.87
2022-10-19T09:53:56.441Z,18.35
2022-10-19T09:57:01.195Z,18.79
2022-10-19T10:00:09.132Z,19.02
2022-10-19T10:03:35.651Z,18.98
2022-10-19T10:06:39.903Z,19.21
2022-10-19T10:09:44.680Z,19.40
2022-10-19T10:12:49.304Z,19.22
2022-10-19T10:16:00.941Z,18.63
2022-10-19T10:19:07.643Z,18.73
2022-10-19T10:22:24.692Z,18.88
2022-10-19T10:25:33.656Z,19.19
2022-10-19T10:28:46.516Z,19.75
2022-10-19T10:31:56.532Z,19.76
2022-10-19T10:35:02.999Z,19.46
2022-10-19T10:38:14.673Z,19.24
2022-10-19T10:41:23.156Z,18.31
2022-10-19T10:44:29.992Z,18.18
2022-10-19T10:47:33.080Z,18.15
2022-10-19T10:50:36.595Z,18.17
2022-10-19T10:53:40.527Z,17.96
2022-10-19T10:56:45.058Z,18.42
2022-10-19T10:59:52.670Z,19.93
2022-10-19T11:03:02.228Z,24.07
2022-10-19T11:06:05.649Z,25.34
2022-10-19T11:09:17.928Z,26.77
2022-10-19T11:12:29.516Z,29.04
2022-10-19T11:15:42.124Z,31.58
2022-10-19T11:22:33.057Z,28.44
2022-10-19T11:25:44.938Z,27.04
2022-10-19T11:28:48.980Z,26.77
2022-10-19T11:31:57.275Z,26.19
2022-10-19T11:35:12.577Z,26.26
2022-10-19T11:38:34.129Z,26.85
2022-10-19T11:41:56.304Z,25.80
2022-10-19T11:44:59.297Z,27.03
2022-10-19T11:48:01.641Z,25.43
2022-10-19T11:51:21.009Z,24.96
2022-10-19T11:54:24.313Z,26.25
2022-10-19T11:57:32.771Z,28.75
2022-10-19T12:00:45.091Z,27.95
2022-10-19T12:04:28.998Z,25.35
2022-10-19T12:07:47.240Z,23.99
2022-10-19T12:10:50.896Z,23.15
2022-10-19T12:14:00.217Z,22.03
2022-10-19T12:17:08.531Z,21.43
2022-10-19T12:20:24.077Z,20.83
2022-10-19T12:23:35.806Z,20.03
2022-10-19T12:26:40.814Z,19.49
2022-10-19T12:29:48.040Z,19.29
2022-10-19T12:32:55.209Z,19.05
2022-10-19T12:36:01.203Z,18.47
2022-10-19T12:39:15.840Z,18.43
2022-10-19T12:42:23.918Z,18.54
2022-10-19T12:45:34.081Z,18.55
2022-10-19T12:48:39.262Z,18.37
2022-10-19T12:51:46.578Z,18.49
2022-10-19T12:54:50.311Z,18.16
2022-10-19T12:57:58.332Z,18.24
2022-10-19T13:01:02.759Z,18.20
2022-10-19T13:04:11.955Z,18.31
2022-10-19T13:07:18.243Z,18.38
2022-10-19T13:10:27.163Z,18.18
2022-10-19T13:13:51.909Z,18.19
2022-10-19T13:17:00.134Z,18.07
2022-10-19T13:20:16.171Z,18.11
2022-10-19T13:23:31.333Z,18.16
2022-10-19T13:26:35.634Z,18.00
2022-10-19T13:29:38.822Z,17.94
2022-10-19T13:32:43.742Z,17.91
2022-10-19T13:35:47.590Z,17.81
2022-10-19T13:38:51.259Z,17.76
2022-10-19T13:41:54.817Z,17.76
2022-10-19T13:44:58.703Z,17.70
2022-10-19T13:48:09.278Z,17.54
2022-10-19T13:51:20.676Z,17.61
2022-10-19T13:54:43.419Z,17.56
2022-10-19T13:57:54.706Z,17.49
2022-10-19T14:01:09.187Z,17.41
2022-10-19T14:04:20.101Z,17.25
2022-10-19T14:07:27.636Z,17.18
2022-10-19T14:10:56.319Z,17.05
2022-10-19T14:14:11.068Z,17.04
2022-10-19T14:20:33.752Z,17.01
2022-10-19T14:23:42.175Z,16.88
2022-10-19T14:26:45.174Z,16.79
2022-10-19T14:29:50.997Z,16.77
2022-10-19T14:32:59.410Z,16.70
2022-10-19T14:36:07.548Z,16.57
2022-10-19T14:39:26.722Z,16.47
2022-10-19T14:42:38.307Z,16.44
2022-10-19T14:45:42.075Z,16.42
2022-10-19T14:48:48.431Z,16.32
2022-10-19T14:51:58.542Z,16.32
2022-10-19T14:55:05.047Z,16.20
2022-10-19T14:58:14.072Z,16.03
2022-10-19T15:01:20.219Z,16.04
2022-10-19T15:04:38.071Z,15.99
2022-10-19T15:07:42.522Z,16.00
2022-10-19T15:10:47.495Z,15.92
2022-10-19T15:13:55.673Z,15.80
2022-10-19T15:17:01.079Z,15.74
2022-10-19T15:20:22.643Z,15.64
2022-10-19T15:23:34.253Z,15.62
2022-10-19T15:26:40.876Z,15.49
2022-10-19T15:29:55.349Z,15.36
2022-10-19T15:33:11.559Z,15.29
2022-10-19T15:36:19.177Z,15.21
2022-10-19T15:39:38.912Z,15.17
2022-10-19T15:42:48.872Z,15.12
2022-10-19T15:46:01.583Z,15.05
2022-10-19T15:49:25.490Z,15.02
2022-10-19T15:52:35.222Z,15.01
2022-10-19T15:55:40.285Z,14.94
2022-10-19T15:58:51.716Z,14.80
2022-10-19T16:01:57.101Z,14.68
2022-10-19T16:05:04.423Z,14.75
2022-10-19T16:08:12.449Z,14.66
2022-10-19T16:11:20.577Z,14.61
2022-10-19T16:14:27.761Z,14.53
2022-10-19T16:17:35.261Z,14.41
2022-10-19T16:20:44.487Z,14.19
2022-10-19T16:23:55.498Z,14.18
2022-10-19T16:27:04.535Z,14.04
2022-10-19T16:30:14.540Z,14.03
2022-10-19T16:33:21.107Z,14.05
2022-10-19T16:36:29.147Z,13.94
2022-10-19T16:39:36.750Z,13.93
2022-10-19T16:42:41.550Z,13.94
2022-10-19T16:45:45.824Z,13.84
2022-10-19T16:48:50.946Z,13.75
2022-10-19T16:51:57.739Z,13.57
2022-10-19T16:55:05.399Z,13.48
2022-10-19T16:58:09.741Z,13.22
2022-10-19T17:01:17.254Z,13.02
2022-10-19T17:04:23.148Z,13.02
2022-10-19T17:07:30.290Z,13.19
2022-10-19T17:10:41.424Z,13.11
2022-10-19T17:13:49.717Z,13.12
2022-10-19T17:16:55.662Z,13.18
2022-10-19T17:20:00.618Z,13.06
2022-10-19T17:23:10.627Z,13.01
2022-10-19T17:26:18.358Z,13.04
2022-10-19T17:29:24.189Z,13.06
2022-10-19T17:32:30.093Z,12.94
2022-10-19T17:35:36.567Z,12.87
2022-10-19T17:38:44.212Z,12.86
2022-10-19T17:41:52.393Z,12.77
2022-10-19T17:45:01.508Z,12.61
2022-10-19T17:48:08.099Z,12.49
2022-10-19T17:51:19.775Z,12.50
2022-10-19T17:54:25.740Z,12.42
2022-10-19T17:57:33.606Z,12.43
2022-10-19T18:00:39.936Z,12.48
2022-10-19T18:03:47.394Z,12.50
2022-10-19T18:06:53.895Z,12.45
2022-10-19T18:09:59.265Z,12.35
2022-10-19T18:13:05.431Z,12.28
2022-10-19T18:16:12.303Z,12.29
2022-10-19T18:19:18.803Z,12.20
2022-10-19T18:22:27.112Z,12.09
2022-10-19T18:25:53.049Z,12.00
2022-10-19T18:29:01.150Z,11.87
2022-10-19T18:35:15.659Z,11.77
2022-10-19T18:38:20.678Z,11.69
2022-10-19T18:41:26.460Z,11.69
2022-10-19T18:44:33.469Z,11.60
2022-10-19T18:47:37.364Z,11.43
2022-10-19T18:50:43.156Z,11.21
2022-10-19T18:53:50.290Z,11.36
2022-10-19T18:56:56.452Z,11.55
2022-10-19T19:00:03.033Z,11.49
2022-10-19T19:03:09.229Z,11.44
2022-10-19T19:06:19.350Z,11.32
2022-10-19T19:09:27.534Z,11.40
2022-10-19T19:12:37.420Z,11.31
2022-10-19T19:15:44.438Z,11.22
2022-10-19T19:18:52.786Z,11.20
2022-10-19T19:21:59.206Z,11.09
2022-10-19T19:25:14.053Z,11.21
2022-10-19T19:28:20.370Z,11.23
2022-10-19T19:31:29.739Z,11.04
2022-10-19T19:34:36.549Z,10.83
2022-10-19T19:37:47.065Z,10.83
2022-10-19T19:40:54.432Z,10.73
2022-10-19T19:43:59.672Z,10.92
2022-10-19T19:47:04.213Z,10.87
2022-10-19T19:50:11.280Z,10.77
2022-10-19T19:53:19.564Z,10.64
2022-10-19T19:56:26.711Z,10.35
2022-10-19T19:59:33.256Z,10.22
2022-10-19T20:02:40.450Z,10.25
2022-10-19T20:05:46.199Z,10.29
2022-10-19T20:08:51.393Z,10.35
2022-10-19T20:11:59.501Z,10.22
2022-10-19T20:15:04.430Z,10.33
2022-10-19T20:18:10.991Z,10.31
2022-10-19T20:21:20.267Z,10.25
2022-10-19T20:24:29.765Z,10.12
2022-10-19T20:27:37.504Z,10.03
2022-10-19T20:30:59.679Z,10.02
2022-10-19T20:34:09.124Z,9.88
2022-10-19T20:37:15.191Z,9.85
2022-10-19T20:40:22.951Z,9.83
2022-10-19T20:43:28.905Z,9.90
2022-10-19T20:46:34.321Z,9.94
2022-10-19T20:49:41.765Z,10.01
2022-10-19T20:52:46.337Z,9.88
2022-10-19T20:55:53.706Z,9.87
2022-10-19T21:02:15.256Z,9.62
2022-10-19T21:05:20.034Z,9.51
2022-10-19T21:08:24.597Z,9.41
2022-10-19T21:11:29.957Z,9.38
2022-10-19T21:14:38.462Z,9.31
2022-10-19T21:17:48.351Z,9.22
2022-10-19T21:20:55.305Z,9.23
2022-10-19T21:24:04.567Z,9.26
2022-10-19T21:27:10.651Z,9.13
2022-10-19T21:30:18.181Z,9.13
2022-10-19T21:33:26.337Z,9.12
2022-10-19T21:36:31.683Z,9.02
2022-10-19T21:39:36.837Z,9.13
2022-10-19T21:42:40.625Z,9.09
2022-10-19T21:45:47.372Z,9.09
2022-10-19T21:48:55.230Z,8.96
2022-10-19T21:52:03.242Z,8.94
2022-10-19T21:55:09.382Z,8.81
2022-10-19T21:58:16.775Z,8.69
2022-10-19T22:01:24.983Z,8.64
2022-10-19T22:04:31.224Z,8.78
2022-10-19T22:07:38.212Z,8.77
2022-10-19T22:10:46.099Z,8.82
2022-10-19T22:13:55.005Z,9.03
2022-10-19T22:17:05.455Z,8.91
2022-10-19T22:20:13.109Z,8.85
2022-10-19T22:23:20.314Z,8.79
2022-10-19T22:26:30.174Z,8.78
2022-10-19T22:29:37.106Z,8.56
2022-10-19T22:32:44.890Z,8.50
2022-10-19T22:35:54.775Z,8.42
2022-10-19T22:39:00.821Z,8.33
2022-10-19T22:42:45.524Z,8.31
2022-10-19T22:46:05.087Z,8.30
2022-10-19T22:49:10.984Z,8.41
2022-10-19T22:52:17.356Z,8.49
2022-10-19T22:55:24.877Z,8.49
2022-10-19T22:58:31.245Z,8.38
2022-10-19T23:01:40.109Z,8.34
2022-10-19T23:04:45.584Z,8.23
2022-10-19T23:07:53.174Z,8.26
2022-10-19T23:10:59.573Z,8.18
2022-10-19T23:14:08.570Z,8.05
2022-10-19T23:17:15.614Z,8.14
2022-10-19T23:20:23.908Z,8.17
2022-10-19T23:23:30.809Z,8.15
2022-10-19T23:26:37.547Z,8.17
2022-10-19T23:29:43.920Z,8.14
2022-10-19T23:32:50.950Z,8.03
2022-10-19T23:36:01.410Z,7.96
2022-10-19T23:39:09.296Z,7.93
2022-10-19T23:42:16.144Z,7.92
2022-10-19T23:45:21.134Z,7.84
2022-10-19T23:48:27.206Z,7.87
2022-10-19T23:51:34.517Z,7.91
2022-10-19T23:54:42.024Z,7.84
2022-10-19T23:57:50.935Z,7.82
